sensor_id;sensor_type;location;lat;lon;timestamp;pressure;altitude;pressure_sealevel;temperature;humidity
35551;BME280;21655;46.056;13.616;2022-08-25T00:02:04;100389.31;;;21.42;100.00
35551;BME280;21655;46.056;13.616;2022-08-25T00:04:33;100388.56;;;21.35;100.00
35551;BME280;21655;46.056;13.616;2022-08-25T00:07:00;100390.88;;;21.38;100.00
35551;BME280;21655;46.056;13.616;2022-08-25T00:09:27;100386.34;;;21.37;100.00
35551;BME280;21655;46.056;13.616;2022-08-25T00:11:53;100390.78;;;21.33;100.00
35551;BME280;21655;46.056;13.616;2022-08-25T00:14:29;100379.09;;;21.41;100.00
35551;BME280;21655;46.056;13.616;2022-08-25T00:16:55;100387.72;;;21.35;100.00
35551;BME280;21655;46.056;13.616;2022-08-25T00:19:24;100392.41;;;21.29;100.00
35551;BME280;21655;46.056;13.616;2022-08-25T00:21:50;100396.34;;;21.28;100.00
35551;BME280;21655;46.056;13.616;2022-08-25T00:24:18;100399.91;;;21.12;100.00
35551;BME280;21655;46.056;13.616;2022-08-25T00:26:45;100391.47;;;21.12;100.00
35551;BME280;21655;46.056;13.616;2022-08-25T00:29:11;100390.97;;;21.15;100.00
35551;BME280;21655;46.056;13.616;2022-08-25T00:31:37;100393.78;;;21.15;100.00
35551;BME280;21655;46.056;13.616;2022-08-25T00:34:04;100388.84;;;21.22;100.00
35551;BME280;21655;46.056;13.616;2022-08-25T00:36:32;100400.53;;;21.14;100.00
35551;BME280;21655;46.056;13.616;2022-08-25T00:38:58;100400.63;;;21.19;100.00
35551;BME280;21655;46.056;13.616;2022-08-25T00:41:25;100396.38;;;21.17;100.00
35551;BME280;21655;46.056;13.616;2022-08-25T00:43:59;100409.50;;;21.11;100.00
35551;BME280;21655;46.056;13.616;2022-08-25T00:46:28;100403.84;;;21.11;100.00
35551;BME280;21655;46.056;13.616;2022-08-25T00:49:07;100404.81;;;21.17;100.00
35551;BME280;21655;46.056;13.616;2022-08-25T00:51:38;100406.16;;;21.14;100.00
35551;BME280;21655;46.056;13.616;2022-08-25T00:54:06;100412.16;;;21.06;100.00
35551;BME280;21655;46.056;13.616;2022-08-25T00:56:32;100408.63;;;21.00;100.00
35551;BME280;21655;46.056;13.616;2022-08-25T00:59:00;100401.50;;;20.97;100.00
35551;BME280;21655;46.056;13.616;2022-08-25T01:01:27;100409.75;;;20.99;100.00
35551;BME280;21655;46.056;13.616;2022-08-25T01:03:53;100407.03;;;20.92;100.00
35551;BME280;21655;46.056;13.616;2022-08-25T01:06:18;100407.53;;;20.89;100.00
35551;BME280;21655;46.056;13.616;2022-08-25T01:08:44;100398.34;;;20.94;100.00
35551;BME280;21655;46.056;13.616;2022-08-25T01:11:10;100391.84;;;20.93;100.00
35551;BME280;21655;46.056;13.616;2022-08-25T01:13:43;100400.31;;;20.93;100.00
35551;BME280;21655;46.056;13.616;2022-08-25T01:16:11;100399.94;;;20.90;100.00
35551;BME280;21655;46.056;13.616;2022-08-25T01:18:43;100400.16;;;20.77;100.00
35551;BME280;21655;46.056;13.616;2022-08-25T01:21:09;100396.34;;;20.83;100.00
35551;BME280;21655;46.056;13.616;2022-08-25T01:23:34;100404.59;;;20.84;100.00
35551;BME280;21655;46.056;13.616;2022-08-25T01:26:05;100402.13;;;20.88;100.00
35551;BME280;21655;46.056;13.616;2022-08-25T01:28:32;100400.53;;;20.92;100.00
35551;BME280;21655;46.056;13.616;2022-08-25T01:30:57;100391.72;;;21.00;100.00
35551;BME280;21655;46.056;13.616;2022-08-25T01:33:23;100393.81;;;20.93;100.00
35551;BME280;21655;46.056;13.616;2022-08-25T01:35:49;100390.00;;;20.87;100.00
35551;BME280;21655;46.056;13.616;2022-08-25T01:38:16;100390.63;;;20.89;100.00
35551;BME280;21655;46.056;13.616;2022-08-25T01:40:42;100378.81;;;20.81;100.00
35551;BME280;21655;46.056;13.616;2022-08-25T01:45:47;100393.88;;;20.75;100.00
35551;BME280;21655;46.056;13.616;2022-08-25T01:48:14;100390.22;;;20.74;100.00
35551;BME280;21655;46.056;13.616;2022-08-25T01:50:41;100378.06;;;20.74;100.00
35551;BME280;21655;46.056;13.616;2022-08-25T01:53:18;100380.19;;;20.67;100.00
35551;BME280;21655;46.056;13.616;2022-08-25T01:55:44;100388.63;;;20.67;100.00
35551;BME280;21655;46.056;13.616;2022-08-25T01:58:31;100391.94;;;20.75;100.00
35551;BME280;21655;46.056;13.616;2022-08-25T02:00:59;100387.03;;;20.82;100.00
35551;BME280;21655;46.056;13.616;2022-08-25T02:03:26;100387.28;;;20.81;100.00
35551;BME280;21655;46.056;13.616;2022-08-25T02:05:52;100374.41;;;20.73;100.00
35551;BME280;21655;46.056;13.616;2022-08-25T02:08:19;100383.84;;;20.79;100.00
35551;BME280;21655;46.056;13.616;2022-08-25T02:10:44;100381.50;;;20.76;100.00
35551;BME280;21655;46.056;13.616;2022-08-25T02:13:11;100384.09;;;20.77;100.00
35551;BME280;21655;46.056;13.616;2022-08-25T02:16:03;100378.34;;;20.72;100.00
35551;BME280;21655;46.056;13.616;2022-08-25T02:18:29;100382.25;;;20.71;100.00
35551;BME280;21655;46.056;13.616;2022-08-25T02:20:54;100382.38;;;20.65;100.00
35551;BME280;21655;46.056;13.616;2022-08-25T02:23:19;100383.72;;;20.62;100.00
35551;BME280;21655;46.056;13.616;2022-08-25T02:25:45;100377.84;;;20.52;100.00
35551;BME280;21655;46.056;13.616;2022-08-25T02:28:12;100375.50;;;20.49;100.00
35551;BME280;21655;46.056;13.616;2022-08-25T02:30:39;100375.38;;;20.44;100.00
35551;BME280;21655;46.056;13.616;2022-08-25T02:33:05;100377.47;;;20.49;100.00
35551;BME280;21655;46.056;13.616;2022-08-25T02:35:31;100380.69;;;20.52;100.00
35551;BME280;21655;46.056;13.616;2022-08-25T02:37:56;100371.97;;;20.42;100.00
35551;BME280;21655;46.056;13.616;2022-08-25T02:40:22;100376.22;;;20.33;100.00
35551;BME280;21655;46.056;13.616;2022-08-25T02:42:49;100378.06;;;20.28;100.00
35551;BME280;21655;46.056;13.616;2022-08-25T02:45:15;100375.88;;;20.30;100.00
35551;BME280;21655;46.056;13.616;2022-08-25T02:47:40;100370.34;;;20.35;100.00
35551;BME280;21655;46.056;13.616;2022-08-25T02:50:07;100376.72;;;20.42;100.00
35551;BME280;21655;46.056;13.616;2022-08-25T02:52:34;100367.81;;;20.45;100.00
35551;BME280;21655;46.056;13.616;2022-08-25T02:55:04;100368.41;;;20.47;100.00
35551;BME280;21655;46.056;13.616;2022-08-25T02:57:30;100367.44;;;20.41;100.00
35551;BME280;21655;46.056;13.616;2022-08-25T02:59:56;100357.75;;;20.37;100.00
35551;BME280;21655;46.056;13.616;2022-08-25T03:02:23;100365.09;;;20.38;100.00
35551;BME280;21655;46.056;13.616;2022-08-25T03:04:50;100363.38;;;20.37;100.00
35551;BME280;21655;46.056;13.616;2022-08-25T03:07:17;100358.84;;;20.36;100.00
35551;BME280;21655;46.056;13.616;2022-08-25T03:09:43;100351.34;;;20.30;100.00
35551;BME280;21655;46.056;13.616;2022-08-25T03:12:09;100360.06;;;20.29;100.00
35551;BME280;21655;46.056;13.616;2022-08-25T03:14:36;100352.22;;;20.31;100.00
35551;BME280;21655;46.056;13.616;2022-08-25T03:17:02;100356.16;;;20.30;100.00
35551;BME280;21655;46.056;13.616;2022-08-25T03:19:28;100359.56;;;20.32;100.00
35551;BME280;21655;46.056;13.616;2022-08-25T03:21:53;100363.50;;;20.31;100.00
35551;BME280;21655;46.056;13.616;2022-08-25T03:24:24;100357.47;;;20.27;100.00
35551;BME280;21655;46.056;13.616;2022-08-25T03:26:50;100360.53;;;20.26;100.00
35551;BME280;21655;46.056;13.616;2022-08-25T03:29:25;100351.47;;;20.24;100.00
35551;BME280;21655;46.056;13.616;2022-08-25T03:31:52;100363.72;;;20.18;100.00
35551;BME280;21655;46.056;13.616;2022-08-25T03:34:20;100357.47;;;20.04;100.00
35551;BME280;21655;46.056;13.616;2022-08-25T03:36:47;100360.63;;;20.08;100.00
35551;BME280;21655;46.056;13.616;2022-08-25T03:39:14;100365.28;;;20.02;100.00
35551;BME280;21655;46.056;13.616;2022-08-25T03:41:40;100363.31;;;20.03;100.00
35551;BME280;21655;46.056;13.616;2022-08-25T03:44:07;100360.34;;;19.98;100.00
35551;BME280;21655;46.056;13.616;2022-08-25T03:46:38;100364.59;;;19.89;100.00
35551;BME280;21655;46.056;13.616;2022-08-25T03:49:05;100370.00;;;19.90;100.00
35551;BME280;21655;46.056;13.616;2022-08-25T03:51:34;100363.16;;;19.98;100.00
35551;BME280;21655;46.056;13.616;2022-08-25T03:54:01;100352.75;;;19.98;100.00
35551;BME280;21655;46.056;13.616;2022-08-25T03:56:27;100354.09;;;19.96;100.00
35551;BME280;21655;46.056;13.616;2022-08-25T03:58:53;100363.00;;;19.93;100.00
35551;BME280;21655;46.056;13.616;2022-08-25T04:01:19;100365.09;;;19.97;100.00
35551;BME280;21655;46.056;13.616;2022-08-25T04:03:45;100354.09;;;19.96;100.00
35551;BME280;21655;46.056;13.616;2022-08-25T04:06:12;100364.09;;;19.92;100.00
35551;BME280;21655;46.056;13.616;2022-08-25T04:08:38;100361.53;;;19.90;100.00
35551;BME280;21655;46.056;13.616;2022-08-25T04:11:22;100350.00;;;19.80;100.00
35551;BME280;21655;46.056;13.616;2022-08-25T04:13:47;100352.59;;;19.82;100.00
35551;BME280;21655;46.056;13.616;2022-08-25T04:16:16;100361.50;;;19.79;100.00
35551;BME280;21655;46.056;13.616;2022-08-25T04:18:43;100361.88;;;19.82;100.00
35551;BME280;21655;46.056;13.616;2022-08-25T04:21:10;100363.97;;;19.87;100.00
35551;BME280;21655;46.056;13.616;2022-08-25T04:23:41;100360.41;;;19.80;100.00
35551;BME280;21655;46.056;13.616;2022-08-25T04:26:18;100362.97;;;19.81;100.00
35551;BME280;21655;46.056;13.616;2022-08-25T04:28:45;100358.84;;;19.84;100.00
35551;BME280;21655;46.056;13.616;2022-08-25T04:31:12;100358.34;;;19.87;100.00
35551;BME280;21655;46.056;13.616;2022-08-25T04:33:39;100350.78;;;19.87;100.00
35551;BME280;21655;46.056;13.616;2022-08-25T04:36:07;100347.56;;;19.84;100.00
35551;BME280;21655;46.056;13.616;2022-08-25T04:38:33;100345.56;;;19.73;100.00
35551;BME280;21655;46.056;13.616;2022-08-25T04:41:01;100360.69;;;19.60;100.00
35551;BME280;21655;46.056;13.616;2022-08-25T04:43:28;100366.94;;;19.62;100.00
35551;BME280;21655;46.056;13.616;2022-08-25T04:45:54;100362.31;;;19.68;100.00
35551;BME280;21655;46.056;13.616;2022-08-25T04:48:20;100358.31;;;19.75;100.00
35551;BME280;21655;46.056;13.616;2022-08-25T04:50:46;100351.81;;;19.75;100.00
35551;BME280;21655;46.056;13.616;2022-08-25T04:53:12;100358.81;;;19.72;100.00
35551;BME280;21655;46.056;13.616;2022-08-25T04:55:41;100362.72;;;19.71;100.00
35551;BME280;21655;46.056;13.616;2022-08-25T04:58:07;100362.34;;;19.79;100.00
35551;BME280;21655;46.056;13.616;2022-08-25T05:00:34;100365.94;;;19.86;100.00
35551;BME280;21655;46.056;13.616;2022-08-25T05:03:00;100365.69;;;19.88;100.00
35551;BME280;21655;46.056;13.616;2022-08-25T05:05:26;100369.72;;;19.92;100.00
35551;BME280;21655;46.056;13.616;2022-08-25T05:07:51;100369.59;;;19.87;100.00
35551;BME280;21655;46.056;13.616;2022-08-25T05:10:17;100367.75;;;19.81;100.00
35551;BME280;21655;46.056;13.616;2022-08-25T05:12:44;100375.00;;;19.88;100.00
35551;BME280;21655;46.056;13.616;2022-08-25T05:15:10;100371.81;;;19.96;100.00
35551;BME280;21655;46.056;13.616;2022-08-25T05:17:55;100360.00;;;20.06;100.00
35551;BME280;21655;46.056;13.616;2022-08-25T05:20:21;100365.81;;;20.11;100.00
35551;BME280;21655;46.056;13.616;2022-08-25T05:22:46;100366.41;;;20.13;100.00
35551;BME280;21655;46.056;13.616;2022-08-25T05:25:12;100363.09;;;20.16;100.00
35551;BME280;21655;46.056;13.616;2022-08-25T05:27:39;100371.06;;;20.19;100.00
35551;BME280;21655;46.056;13.616;2022-08-25T05:30:05;100365.09;;;20.27;100.00
35551;BME280;21655;46.056;13.616;2022-08-25T05:32:31;100362.63;;;20.42;100.00
35551;BME280;21655;46.056;13.616;2022-08-25T05:34:56;100363.63;;;20.47;100.00
35551;BME280;21655;46.056;13.616;2022-08-25T05:37:22;100366.09;;;20.55;100.00
35551;BME280;21655;46.056;13.616;2022-08-25T05:39:47;100359.56;;;20.66;100.00
35551;BME280;21655;46.056;13.616;2022-08-25T05:42:13;100356.41;;;20.74;100.00
35551;BME280;21655;46.056;13.616;2022-08-25T05:44:38;100354.06;;;20.83;100.00
35551;BME280;21655;46.056;13.616;2022-08-25T05:47:04;100346.47;;;21.06;100.00
35551;BME280;21655;46.056;13.616;2022-08-25T05:49:29;100350.25;;;21.11;100.00
35551;BME280;21655;46.056;13.616;2022-08-25T05:51:55;100351.44;;;21.27;100.00
35551;BME280;21655;46.056;13.616;2022-08-25T05:54:20;100352.25;;;21.39;100.00
35551;BME280;21655;46.056;13.616;2022-08-25T05:56:46;100352.31;;;21.55;100.00
35551;BME280;21655;46.056;13.616;2022-08-25T05:59:11;100342.38;;;21.64;100.00
35551;BME280;21655;46.056;13.616;2022-08-25T06:01:37;100345.13;;;21.76;100.00
35551;BME280;21655;46.056;13.616;2022-08-25T06:04:20;100340.06;;;22.22;100.00
35551;BME280;21655;46.056;13.616;2022-08-25T06:06:47;100323.84;;;23.21;100.00
35551;BME280;21655;46.056;13.616;2022-08-25T06:09:13;100331.50;;;23.90;94.92
35551;BME280;21655;46.056;13.616;2022-08-25T06:11:39;100333.09;;;24.71;88.87
35551;BME280;21655;46.056;13.616;2022-08-25T06:14:06;100329.81;;;25.30;83.44
35551;BME280;21655;46.056;13.616;2022-08-25T06:16:32;100330.56;;;25.82;79.57
35551;BME280;21655;46.056;13.616;2022-08-25T06:18:58;100325.78;;;25.97;77.59
35551;BME280;21655;46.056;13.616;2022-08-25T06:21:25;100334.06;;;26.89;73.39
35551;BME280;21655;46.056;13.616;2022-08-25T06:23:51;100328.59;;;27.37;68.08
35551;BME280;21655;46.056;13.616;2022-08-25T06:26:16;100330.47;;;27.61;66.26
35551;BME280;21655;46.056;13.616;2022-08-25T06:28:42;100320.06;;;27.90;64.01
35551;BME280;21655;46.056;13.616;2022-08-25T06:31:07;100324.22;;;27.54;66.34
35551;BME280;21655;46.056;13.616;2022-08-25T06:33:34;100321.25;;;27.11;68.35
35551;BME280;21655;46.056;13.616;2022-08-25T06:35:59;100325.94;;;28.09;65.45
35551;BME280;21655;46.056;13.616;2022-08-25T06:38:25;100319.78;;;28.35;62.44
35551;BME280;21655;46.056;13.616;2022-08-25T06:40:51;100322.50;;;28.84;61.23
35551;BME280;21655;46.056;13.616;2022-08-25T06:43:18;100308.63;;;29.24;58.43
35551;BME280;21655;46.056;13.616;2022-08-25T06:45:44;100317.41;;;29.32;59.37
35551;BME280;21655;46.056;13.616;2022-08-25T06:48:09;100311.75;;;29.74;56.10
35551;BME280;21655;46.056;13.616;2022-08-25T06:50:37;100317.00;;;28.20;60.86
35551;BME280;21655;46.056;13.616;2022-08-25T06:53:03;100304.19;;;27.69;63.47
35551;BME280;21655;46.056;13.616;2022-08-25T06:55:29;100294.16;;;27.23;66.84
35551;BME280;21655;46.056;13.616;2022-08-25T06:57:54;100287.38;;;27.15;67.34
35551;BME280;21655;46.056;13.616;2022-08-25T07:00:20;100291.13;;;26.65;69.83
35551;BME280;21655;46.056;13.616;2022-08-25T07:02:47;100296.00;;;26.55;71.72
35551;BME280;21655;46.056;13.616;2022-08-25T07:05:12;100294.25;;;27.72;66.43
35551;BME280;21655;46.056;13.616;2022-08-25T07:07:38;100291.13;;;30.33;56.65
35551;BME280;21655;46.056;13.616;2022-08-25T07:10:04;100290.28;;;32.75;48.08
35551;BME280;21655;46.056;13.616;2022-08-25T07:12:30;100294.81;;;34.06;44.97
35551;BME280;21655;46.056;13.616;2022-08-25T07:14:55;100295.50;;;34.96;41.74
35551;BME280;21655;46.056;13.616;2022-08-25T07:17:21;100286.72;;;35.47;39.27
35551;BME280;21655;46.056;13.616;2022-08-25T07:19:48;100281.91;;;35.05;41.09
35551;BME280;21655;46.056;13.616;2022-08-25T07:22:13;100279.72;;;36.14;39.12
35551;BME280;21655;46.056;13.616;2022-08-25T07:24:39;100287.75;;;36.91;37.79
35551;BME280;21655;46.056;13.616;2022-08-25T07:27:05;100284.00;;;37.23;36.20
35551;BME280;21655;46.056;13.616;2022-08-25T07:29:31;100275.41;;;37.02;36.64
35551;BME280;21655;46.056;13.616;2022-08-25T07:31:59;100271.53;;;37.10;36.61
35551;BME280;21655;46.056;13.616;2022-08-25T07:34:24;100271.72;;;37.26;35.88
35551;BME280;21655;46.056;13.616;2022-08-25T07:37:08;100268.53;;;34.67;40.69
35551;BME280;21655;46.056;13.616;2022-08-25T07:39:34;100266.22;;;34.69;41.47
35551;BME280;21655;46.056;13.616;2022-08-25T07:41:59;100268.06;;;37.17;36.44
35551;BME280;21655;46.056;13.616;2022-08-25T07:44:25;100263.44;;;37.04;36.13
35551;BME280;21655;46.056;13.616;2022-08-25T07:46:51;100257.09;;;36.78;36.80
35551;BME280;21655;46.056;13.616;2022-08-25T07:49:18;100262.28;;;37.17;36.70
35551;BME280;21655;46.056;13.616;2022-08-25T07:51:44;100252.81;;;36.43;37.68
35551;BME280;21655;46.056;13.616;2022-08-25T07:54:11;100242.94;;;36.23;37.55
35551;BME280;21655;46.056;13.616;2022-08-25T07:56:36;100247.22;;;37.23;37.44
35551;BME280;21655;46.056;13.616;2022-08-25T07:59:02;100246.03;;;37.24;36.07
35551;BME280;21655;46.056;13.616;2022-08-25T08:01:27;100244.75;;;37.46;36.10
35551;BME280;21655;46.056;13.616;2022-08-25T08:03:53;100233.47;;;36.88;36.58
35551;BME280;21655;46.056;13.616;2022-08-25T08:06:22;100235.66;;;37.23;36.74
35551;BME280;21655;46.056;13.616;2022-08-25T08:08:50;100232.16;;;39.08;34.37
35551;BME280;21655;46.056;13.616;2022-08-25T08:11:24;100233.66;;;37.95;35.00
35551;BME280;21655;46.056;13.616;2022-08-25T08:13:55;100234.94;;;37.38;35.32
35551;BME280;21655;46.056;13.616;2022-08-25T08:16:23;100226.41;;;37.78;35.00
35551;BME280;21655;46.056;13.616;2022-08-25T08:18:49;100229.66;;;37.88;34.69
35551;BME280;21655;46.056;13.616;2022-08-25T08:21:23;100225.59;;;36.44;36.96
35551;BME280;21655;46.056;13.616;2022-08-25T08:23:49;100220.13;;;37.64;35.94
35551;BME280;21655;46.056;13.616;2022-08-25T08:26:16;100217.22;;;37.28;35.74
35551;BME280;21655;46.056;13.616;2022-08-25T08:28:42;100219.41;;;37.67;35.47
35551;BME280;21655;46.056;13.616;2022-08-25T08:31:07;100218.69;;;37.93;35.15
35551;BME280;21655;46.056;13.616;2022-08-25T08:33:33;100217.41;;;38.18;34.77
35551;BME280;21655;46.056;13.616;2022-08-25T08:36:04;100215.88;;;38.48;34.29
35551;BME280;21655;46.056;13.616;2022-08-25T08:38:30;100211.19;;;38.44;33.13
35551;BME280;21655;46.056;13.616;2022-08-25T08:43:59;100208.34;;;38.20;33.83
35551;BME280;21655;46.056;13.616;2022-08-25T08:46:38;100199.88;;;37.64;35.28
35551;BME280;21655;46.056;13.616;2022-08-25T08:49:12;100202.66;;;38.90;32.98
35551;BME280;21655;46.056;13.616;2022-08-25T08:51:55;100202.25;;;39.66;32.21
35551;BME280;21655;46.056;13.616;2022-08-25T08:54:23;100197.75;;;38.79;32.81
35551;BME280;21655;46.056;13.616;2022-08-25T08:56:57;100200.31;;;38.96;33.21
35551;BME280;21655;46.056;13.616;2022-08-25T08:59:30;100189.78;;;39.50;31.59
35551;BME280;21655;46.056;13.616;2022-08-25T09:02:03;100189.28;;;40.13;31.27
35551;BME280;21655;46.056;13.616;2022-08-25T09:04:52;100184.00;;;39.84;31.51
35551;BME280;21655;46.056;13.616;2022-08-25T09:07:31;100188.03;;;39.30;31.92
35551;BME280;21655;46.056;13.616;2022-08-25T09:09:59;100182.47;;;39.25;31.58
35551;BME280;21655;46.056;13.616;2022-08-25T09:15:16;100182.31;;;37.96;31.82
35551;BME280;21655;46.056;13.616;2022-08-25T09:18:08;100171.53;;;39.65;30.31
35551;BME280;21655;46.056;13.616;2022-08-25T09:21:02;100173.16;;;40.34;29.30
35551;BME280;21655;46.056;13.616;2022-08-25T09:23:40;100167.63;;;39.76;28.12
35551;BME280;21655;46.056;13.616;2022-08-25T09:26:32;100175.00;;;40.80;27.52
35551;BME280;21655;46.056;13.616;2022-08-25T09:29:06;100167.94;;;40.43;26.74
35551;BME280;21655;46.056;13.616;2022-08-25T09:31:39;100166.97;;;40.17;27.47
35551;BME280;21655;46.056;13.616;2022-08-25T09:34:23;100172.06;;;40.99;26.60
35551;BME280;21655;46.056;13.616;2022-08-25T09:36:52;100158.56;;;39.00;28.78
35551;BME280;21655;46.056;13.616;2022-08-25T09:39:19;100161.19;;;36.76;31.83
35551;BME280;21655;46.056;13.616;2022-08-25T09:44:42;100143.81;;;36.76;33.58
35551;BME280;21655;46.056;13.616;2022-08-25T09:47:21;100141.50;;;38.83;29.72
35551;BME280;21655;46.056;13.616;2022-08-25T09:49:58;100137.66;;;39.72;28.93
35551;BME280;21655;46.056;13.616;2022-08-25T09:52:36;100130.78;;;39.30;29.82
35551;BME280;21655;46.056;13.616;2022-08-25T10:02:35;100128.81;;;41.69;27.39
35551;BME280;21655;46.056;13.616;2022-08-25T10:05:20;100135.75;;;41.87;27.05
35551;BME280;21655;46.056;13.616;2022-08-25T10:07:55;100129.84;;;41.57;26.21
35551;BME280;21655;46.056;13.616;2022-08-25T10:10:45;100121.41;;;40.43;27.94
35551;BME280;21655;46.056;13.616;2022-08-25T10:13:18;100117.19;;;38.88;29.88
35551;BME280;21655;46.056;13.616;2022-08-25T10:15:45;100107.31;;;38.61;29.83
35551;BME280;21655;46.056;13.616;2022-08-25T10:18:27;100106.00;;;39.67;28.95
35551;BME280;21655;46.056;13.616;2022-08-25T10:23:39;100103.78;;;38.68;29.17
35551;BME280;21655;46.056;13.616;2022-08-25T10:26:22;100093.59;;;39.20;29.22
35551;BME280;21655;46.056;13.616;2022-08-25T10:32:42;100094.34;;;41.26;26.88
35551;BME280;21655;46.056;13.616;2022-08-25T10:34:52;100084.75;;;39.82;27.87
35551;BME280;21655;46.056;13.616;2022-08-25T10:45:42;100062.25;;;36.94;31.68
35551;BME280;21655;46.056;13.616;2022-08-25T10:51:28;100052.03;;;35.55;34.33
35551;BME280;21655;46.056;13.616;2022-08-25T10:56:47;100047.19;;;34.69;36.88
35551;BME280;21655;46.056;13.616;2022-08-25T10:59:33;100040.09;;;34.49;37.10
35551;BME280;21655;46.056;13.616;2022-08-25T11:05:32;100042.41;;;34.10;37.42
35551;BME280;21655;46.056;13.616;2022-08-25T11:14:03;100032.19;;;35.54;35.25
35551;BME280;21655;46.056;13.616;2022-08-25T11:16:40;100032.25;;;34.96;34.75
35551;BME280;21655;46.056;13.616;2022-08-25T11:19:29;100023.84;;;34.45;37.28
35551;BME280;21655;46.056;13.616;2022-08-25T11:22:29;100019.69;;;34.17;37.63
35551;BME280;21655;46.056;13.616;2022-08-25T11:25:10;100023.97;;;34.02;37.63
35551;BME280;21655;46.056;13.616;2022-08-25T11:27:53;100021.47;;;33.75;38.24
35551;BME280;21655;46.056;13.616;2022-08-25T11:30:19;100015.72;;;33.25;38.93
35551;BME280;21655;46.056;13.616;2022-08-25T11:32:52;100013.66;;;33.08;39.02
35551;BME280;21655;46.056;13.616;2022-08-25T11:35:26;100017.53;;;32.87;39.66
35551;BME280;21655;46.056;13.616;2022-08-25T11:38:10;100019.19;;;32.71;40.50
35551;BME280;21655;46.056;13.616;2022-08-25T11:46:20;100023.50;;;32.60;41.18
35551;BME280;21655;46.056;13.616;2022-08-25T11:56:36;100022.25;;;31.83;43.02
35551;BME280;21655;46.056;13.616;2022-08-25T11:59:02;100018.53;;;31.82;42.78
35551;BME280;21655;46.056;13.616;2022-08-25T12:04:40;100017.28;;;31.97;44.07
35551;BME280;21655;46.056;13.616;2022-08-25T12:18:09;100011.22;;;31.98;43.68
35551;BME280;21655;46.056;13.616;2022-08-25T12:23:37;100010.97;;;31.86;46.26
35551;BME280;21655;46.056;13.616;2022-08-25T12:28:52;100012.63;;;31.22;52.88
35551;BME280;21655;46.056;13.616;2022-08-25T12:36:38;100015.22;;;31.10;53.90
35551;BME280;21655;46.056;13.616;2022-08-25T12:39:18;100023.72;;;31.15;52.78
35551;BME280;21655;46.056;13.616;2022-08-25T12:41:54;100018.81;;;31.02;52.18
35551;BME280;21655;46.056;13.616;2022-08-25T12:44:44;100023.25;;;31.21;51.61
35551;BME280;21655;46.056;13.616;2022-08-25T12:49:45;100032.72;;;30.00;58.16
35551;BME280;21655;46.056;13.616;2022-08-25T12:52:20;100043.47;;;29.26;64.95
35551;BME280;21655;46.056;13.616;2022-08-25T12:57:21;100042.09;;;28.40;84.91
35551;BME280;21655;46.056;13.616;2022-08-25T12:59:53;100043.59;;;28.09;91.04
35551;BME280;21655;46.056;13.616;2022-08-25T13:05:16;100056.34;;;27.54;98.78
35551;BME280;21655;46.056;13.616;2022-08-25T13:13:51;100063.94;;;26.92;100.00
35551;BME280;21655;46.056;13.616;2022-08-25T13:16:23;100081.97;;;26.73;100.00
35551;BME280;21655;46.056;13.616;2022-08-25T13:18:50;100080.66;;;26.40;100.00
35551;BME280;21655;46.056;13.616;2022-08-25T13:21:22;100085.63;;;26.00;100.00
35551;BME280;21655;46.056;13.616;2022-08-25T13:23:51;100101.25;;;25.47;100.00
35551;BME280;21655;46.056;13.616;2022-08-25T13:26:41;100092.44;;;25.69;100.00
35551;BME280;21655;46.056;13.616;2022-08-25T13:29:20;100098.69;;;25.56;100.00
35551;BME280;21655;46.056;13.616;2022-08-25T13:31:56;100091.31;;;25.65;100.00
35551;BME280;21655;46.056;13.616;2022-08-25T13:34:28;100098.09;;;25.74;100.00
35551;BME280;21655;46.056;13.616;2022-08-25T13:36:55;100088.47;;;25.80;100.00
35551;BME280;21655;46.056;13.616;2022-08-25T13:39:40;100086.19;;;25.87;100.00
35551;BME280;21655;46.056;13.616;2022-08-25T13:42:12;100090.44;;;25.99;100.00
35551;BME280;21655;46.056;13.616;2022-08-25T13:44:38;100084.72;;;26.09;100.00
35551;BME280;21655;46.056;13.616;2022-08-25T13:47:31;100077.81;;;26.35;100.00
35551;BME280;21655;46.056;13.616;2022-08-25T13:52:52;100074.69;;;27.00;100.00
35551;BME280;21655;46.056;13.616;2022-08-25T13:55:23;100070.63;;;27.16;100.00
35551;BME280;21655;46.056;13.616;2022-08-25T13:57:50;100071.41;;;27.26;100.00
35551;BME280;21655;46.056;13.616;2022-08-25T14:00:30;100074.00;;;27.23;100.00
35551;BME280;21655;46.056;13.616;2022-08-25T14:02:56;100058.13;;;27.12;100.00
35551;BME280;21655;46.056;13.616;2022-08-25T14:05:40;100063.84;;;27.07;100.00
35551;BME280;21655;46.056;13.616;2022-08-25T14:08:27;100072.91;;;27.09;100.00
35551;BME280;21655;46.056;13.616;2022-08-25T14:11:31;100080.91;;;27.07;100.00
35551;BME280;21655;46.056;13.616;2022-08-25T14:14:07;100071.28;;;27.03;100.00
35551;BME280;21655;46.056;13.616;2022-08-25T14:16:38;100075.59;;;26.91;100.00
35551;BME280;21655;46.056;13.616;2022-08-25T14:19:12;100070.22;;;26.89;100.00
35551;BME280;21655;46.056;13.616;2022-08-25T14:21:39;100065.47;;;26.70;100.00
35551;BME280;21655;46.056;13.616;2022-08-25T14:24:05;100054.13;;;26.65;100.00
35551;BME280;21655;46.056;13.616;2022-08-25T14:26:31;100062.72;;;26.50;100.00
35551;BME280;21655;46.056;13.616;2022-08-25T14:28:57;100059.38;;;26.28;100.00
35551;BME280;21655;46.056;13.616;2022-08-25T14:31:29;100059.38;;;26.23;100.00